Impacts METAR Board
IDs:

KSEA - Seattle-Tacoma Intl, WA, US

Updated at: 2100 UTC 15 Oct 2018
Potential Impact None Slight Moderate High
Time 15/09Z 15/10Z 15/11Z 15/12Z 15/13Z 15/14Z 15/15Z 15/16Z 15/17Z 15/18Z 15/19Z 15/20Z 15/21Z
Temp48 48 46 48 47 47 48 50 53 56 60 62 64
Dewpt39 40 40 41 41 40 39 39 39 39 39 41 42
Altim30.35 30.35 30.35 30.35 30.35 30.35 30.35 30.36 30.37 30.36 30.36 30.35 30.34
VIS10 10 10 10 10 10 10 10 10 10 10 10 10
CIG-- -- -- -- -- -- -- -- -- -- -- -- --
CoverCLRCLRCLRCLRCLRCLRFEWFEWFEWFEWSCTSCTSCT
FltCatVFRVFRVFRVFRVFRVFRVFRVFRVFRVFRVFRVFRVFR
WX--------------------------
WDir360340350302030202010360102010
WSpd3 4 5 7 8 12 11 13 11 7 7 6 5
WGst-- -- -- -- -- -- -- -- -- -- -- -- --
Raw hourly METARs
KSEA 150853Z 36003KT 10SM CLR 09/04 A3035 RMK AO2 SLP282 T00890039 50001
KSEA 150953Z 34004KT 10SM CLR 09/04 A3035 RMK AO2 SLP284 T00890044
KSEA 151053Z 35005KT 10SM CLR 08/04 A3035 RMK AO2 SLP283 T00780044
KSEA 151153Z 03007KT 10SM CLR 09/05 A3035 RMK AO2 SLP283 T00890050 10117 20067 58000
KSEA 151253Z 02008KT 10SM CLR 08/05 A3035 RMK AO2 SLP283 T00830050
KSEA 151353Z 03012KT 10SM CLR 08/04 A3035 RMK AO2 SLP284 T00830044
KSEA 151453Z 02011KT 10SM FEW250 09/04 A3035 RMK AO2 SLP284 T00890039 51001
KSEA 151553Z 02013KT 10SM FEW250 10/04 A3036 RMK AO2 SLP287 T01000039
KSEA 151653Z 01011KT 10SM FEW250 12/04 A3037 RMK AO2 SLP290 T01170039
KSEA 151753Z 36007KT 10SM FEW250 13/04 A3036 RMK AO2 SLP289 T01330039 10133 20083 50005
KSEA 151853Z 01007KT 10SM SCT250 16/04 A3036 RMK AO2 SLP288 T01560039
KSEA 151953Z 02006KT 10SM SCT250 17/05 A3035 RMK AO2 SLP285 T01670050
KSEA 152053Z 01005KT 10SM SCT250 18/06 A3034 RMK AO2 SLP281 T01780056 58008



Page loaded:  21:38 UTC  |   02:38 PM Pacific  |   03:38 PM Mountain  |   04:38 PM Central  |   05:38 PM Eastern

 

ADVISORIES

FORECASTS

FORECASTS

OBSERVATIONS

USER TOOLS

ABOUT US